Aviation Digital Data Service (ADDS)

Output produced by METARs form (2341 UTC 25 June 2019)
found at http://aviationweather.gov/metar/data/
 
KDFW 252253Z 15013G21KT 10SM SCT048 SCT300 32/21 A2992 RMK AO2 SLP123 CB DSNT E-SE STNRY T03220211
KDFW 252327Z 2600/2706 17012KT P6SM SCT250 
     FM261700 18012KT P6SM SCT040 BKN100